createdAt,value
2019-05-10T00:00:45.660Z,100089.64
2019-05-10T00:03:32.355Z,100090.58
2019-05-10T00:06:28.669Z,100098.39
2019-05-10T00:08:56.999Z,100098.87
2019-05-10T00:11:48.790Z,100097.28
2019-05-10T00:14:30.606Z,100094.19
2019-05-10T00:17:08.722Z,100099.66
2019-05-10T00:19:37.594Z,100097.65
2019-05-10T00:22:06.613Z,100096.80
2019-05-10T00:24:35.529Z,100094.22
2019-05-10T00:27:04.570Z,100102.00
2019-05-10T00:29:33.495Z,100103.02
2019-05-10T00:32:02.429Z,100100.12
2019-05-10T00:34:31.411Z,100093.00
2019-05-10T00:37:00.365Z,100100.52
2019-05-10T00:39:31.349Z,100099.69
2019-05-10T00:42:05.902Z,100101.96
2019-05-10T00:44:34.826Z,100107.59
2019-05-10T00:47:03.821Z,100109.88
2019-05-10T00:49:32.689Z,100107.23
2019-05-10T00:52:01.680Z,100106.66
2019-05-10T00:54:30.609Z,100102.11
2019-05-10T00:56:59.574Z,100111.17
2019-05-10T00:59:28.527Z,100107.78
2019-05-10T01:01:57.496Z,100115.54
2019-05-10T01:04:26.426Z,100109.53
2019-05-10T01:06:56.511Z,100108.11
2019-05-10T01:09:25.573Z,100106.17
2019-05-10T01:11:56.316Z,100108.84
2019-05-10T01:14:33.551Z,100109.54
2019-05-10T01:17:02.607Z,100111.35
2019-05-10T01:19:31.466Z,100105.28
2019-05-10T01:22:00.399Z,100100.25
2019-05-10T01:24:29.595Z,100106.06
2019-05-10T01:26:58.495Z,100102.63
2019-05-10T01:29:27.304Z,100100.36
2019-05-10T01:31:56.264Z,100106.30
2019-05-10T01:34:25.155Z,100122.69
2019-05-10T01:36:54.085Z,100125.95
2019-05-10T01:39:41.496Z,100129.03
2019-05-10T01:42:11.096Z,100132.43
2019-05-10T01:44:40.421Z,100132.20
2019-05-10T01:47:09.460Z,100138.48
2019-05-10T01:49:38.580Z,100139.44
2019-05-10T01:52:07.537Z,100145.34
2019-05-10T01:54:36.400Z,100143.69
2019-05-10T01:57:05.385Z,100148.01
2019-05-10T01:59:34.237Z,100161.00
2019-05-10T02:02:03.150Z,100156.28
2019-05-10T02:04:32.024Z,100157.52
2019-05-10T02:07:00.862Z,100161.94
2019-05-10T02:09:37.301Z,100166.06
2019-05-10T02:12:06.649Z,100168.16
2019-05-10T02:14:35.910Z,100159.59
2019-05-10T02:17:05.120Z,100164.22
2019-05-10T02:19:34.223Z,100163.11
2019-05-10T02:22:03.291Z,100174.89
2019-05-10T02:24:32.167Z,100171.09
2019-05-10T02:27:01.113Z,100173.42
2019-05-10T02:29:30.049Z,100176.72
2019-05-10T02:31:59.043Z,100176.86
2019-05-10T02:34:27.968Z,100179.86
2019-05-10T02:36:56.833Z,100178.64
2019-05-10T02:39:36.320Z,100182.79
2019-05-10T02:42:01.179Z,100186.08
2019-05-10T02:44:30.178Z,100189.76
2019-05-10T02:46:59.216Z,100192.61
2019-05-10T02:49:28.224Z,100193.81
2019-05-10T02:51:57.036Z,100195.88
2019-05-10T02:54:26.027Z,100202.89
2019-05-10T02:56:55.707Z,100202.75
2019-05-10T02:59:25.567Z,100198.55
2019-05-10T03:01:56.908Z,100207.88
2019-05-10T03:04:27.583Z,100209.01
2019-05-10T03:07:09.177Z,100208.53
2019-05-10T03:09:40.824Z,100213.84
2019-05-10T03:12:25.838Z,100213.98
2019-05-10T03:14:58.743Z,100214.65
2019-05-10T03:17:28.705Z,100219.59
2019-05-10T03:19:59.160Z,100216.59
2019-05-10T03:22:28.101Z,100218.75
2019-05-10T03:24:57.120Z,100235.22
2019-05-10T03:27:26.377Z,100234.42
2019-05-10T03:30:05.631Z,100239.22
2019-05-10T03:32:34.646Z,100237.13
2019-05-10T03:35:03.652Z,100240.61
2019-05-10T03:37:32.622Z,100248.41
2019-05-10T03:40:02.368Z,100244.34
2019-05-10T03:42:31.677Z,100239.72
2019-05-10T03:45:00.540Z,100242.21
2019-05-10T03:47:29.473Z,100243.53
2019-05-10T03:49:58.293Z,100241.73
2019-05-10T03:52:27.362Z,100252.11
2019-05-10T03:54:56.224Z,100251.11
2019-05-10T03:57:25.165Z,100244.44
2019-05-10T03:59:54.035Z,100246.48
2019-05-10T04:02:22.898Z,100248.80
2019-05-10T04:04:51.748Z,100247.17
2019-05-10T04:07:20.612Z,100248.27
2019-05-10T04:09:49.700Z,100248.23
2019-05-10T04:12:18.633Z,100258.98
2019-05-10T04:14:49.607Z,100249.81
2019-05-10T04:17:18.404Z,100253.66
2019-05-10T04:19:47.425Z,100251.08
2019-05-10T04:22:16.451Z,100257.03
2019-05-10T04:24:45.380Z,100256.44
2019-05-10T04:27:30.518Z,100260.56
2019-05-10T04:29:46.053Z,100265.44
2019-05-10T04:32:14.982Z,100264.77
2019-05-10T04:34:46.016Z,100262.73
2019-05-10T04:37:14.896Z,100265.80
2019-05-10T04:39:43.832Z,100268.07
2019-05-10T04:42:12.726Z,100275.70
2019-05-10T04:44:41.532Z,100287.95
2019-05-10T04:47:10.421Z,100280.98
2019-05-10T04:49:39.391Z,100287.22
2019-05-10T04:52:08.281Z,100285.66
2019-05-10T04:54:37.239Z,100288.11
2019-05-10T04:57:06.215Z,100293.39
2019-05-10T04:59:47.505Z,100300.24
2019-05-10T05:02:22.109Z,100295.73
2019-05-10T05:04:52.995Z,100300.91
2019-05-10T05:07:36.203Z,100298.14
2019-05-10T05:10:20.824Z,100299.39
2019-05-10T05:12:53.038Z,100308.16
2019-05-10T05:15:22.486Z,100305.09
2019-05-10T05:17:55.578Z,100304.72
2019-05-10T05:20:27.838Z,100300.41
2019-05-10T05:23:11.302Z,100300.80
2019-05-10T05:25:40.270Z,100300.33
2019-05-10T05:28:10.631Z,100302.48
2019-05-10T05:30:39.528Z,100307.41
2019-05-10T05:33:08.355Z,100312.10
2019-05-10T05:35:37.306Z,100317.52
2019-05-10T05:38:06.144Z,100319.36
2019-05-10T05:40:36.054Z,100325.13
2019-05-10T05:43:08.081Z,100322.08
2019-05-10T05:45:35.775Z,100324.80
2019-05-10T05:48:39.461Z,100324.36
2019-05-10T05:50:55.901Z,100329.21
2019-05-10T05:53:24.713Z,100337.38
2019-05-10T05:55:53.534Z,100329.73
2019-05-10T05:58:27.056Z,100333.02
2019-05-10T06:00:53.046Z,100326.72
2019-05-10T06:03:27.452Z,100330.86
2019-05-10T06:05:52.668Z,100328.48
2019-05-10T06:08:25.155Z,100331.19
2019-05-10T06:10:57.954Z,100332.77
2019-05-10T06:13:30.143Z,100343.19
2019-05-10T06:15:55.201Z,100337.73
2019-05-10T06:18:24.035Z,100334.22
2019-05-10T06:20:55.086Z,100348.30
2019-05-10T06:23:29.280Z,100352.63
2019-05-10T06:25:54.611Z,100353.66
2019-05-10T06:28:28.715Z,100355.27
2019-05-10T06:30:54.396Z,100357.16
2019-05-10T06:33:23.204Z,100361.27
2019-05-10T06:35:52.002Z,100362.10
2019-05-10T06:38:20.918Z,100360.77
2019-05-10T06:40:49.734Z,100367.50
2019-05-10T06:43:18.593Z,100367.28
2019-05-10T06:45:52.403Z,100370.53
2019-05-10T06:48:26.796Z,100371.95
2019-05-10T06:50:56.614Z,100376.89
2019-05-10T06:53:25.653Z,100378.88
2019-05-10T06:55:54.905Z,100390.06
2019-05-10T06:58:24.634Z,100390.55
2019-05-10T07:00:55.319Z,100391.11
2019-05-10T07:03:24.468Z,100388.38
2019-05-10T07:05:53.745Z,100391.90
2019-05-10T07:08:22.633Z,100389.79
2019-05-10T07:10:51.888Z,100391.83
2019-05-10T07:13:21.066Z,100393.76
2019-05-10T07:15:50.069Z,100405.06
2019-05-10T07:18:22.814Z,100396.21
2019-05-10T07:21:00.953Z,100406.87
2019-05-10T07:23:30.235Z,100405.66
2019-05-10T07:25:59.430Z,100408.03
2019-05-10T07:28:28.429Z,100419.73
2019-05-10T07:30:57.463Z,100421.66
2019-05-10T07:33:26.688Z,100426.14
2019-05-10T07:35:55.819Z,100429.27
2019-05-10T07:38:30.711Z,100430.14
2019-05-10T07:40:55.921Z,100436.16
2019-05-10T07:43:35.007Z,100436.13
2019-05-10T07:46:06.636Z,100437.41
2019-05-10T07:48:35.394Z,100443.34
2019-05-10T07:51:04.638Z,100439.86
2019-05-10T07:53:38.309Z,100448.39
2019-05-10T07:56:08.995Z,100445.71
2019-05-10T07:58:42.818Z,100455.70
2019-05-10T08:01:12.329Z,100457.02
2019-05-10T08:03:48.078Z,100458.17
2019-05-10T08:08:39.891Z,100453.76
2019-05-10T08:11:08.867Z,100452.12
2019-05-10T08:13:39.313Z,100448.84
2019-05-10T08:16:11.929Z,100451.61
2019-05-10T08:18:39.834Z,100451.48
2019-05-10T08:21:20.457Z,100453.30
2019-05-10T08:23:41.498Z,100466.39
2019-05-10T08:26:20.328Z,100467.87
2019-05-10T08:28:44.610Z,100471.67
2019-05-10T08:31:12.581Z,100474.95
2019-05-10T08:33:44.217Z,100482.46
2019-05-10T08:36:12.229Z,100474.78
2019-05-10T08:38:47.212Z,100477.37
2019-05-10T08:41:16.500Z,100478.77
2019-05-10T08:43:42.998Z,100477.23
2019-05-10T08:46:12.251Z,100490.88
2019-05-10T08:48:46.575Z,100493.05
2019-05-10T08:51:12.621Z,100502.95
2019-05-10T08:53:42.305Z,100502.19
2019-05-10T08:56:13.676Z,100511.59
2019-05-10T08:58:42.254Z,100509.10
2019-05-10T09:01:23.894Z,100511.06
2019-05-10T09:03:42.150Z,100512.47
2019-05-10T09:06:16.491Z,100519.84
2019-05-10T09:08:43.138Z,100527.40
2019-05-10T09:11:12.107Z,100528.68
2019-05-10T09:13:45.670Z,100531.09
2019-05-10T09:16:13.672Z,100533.73
2019-05-10T09:18:46.626Z,100536.63
2019-05-10T09:21:14.325Z,100540.27
2019-05-10T09:23:43.007Z,100544.85
2019-05-10T09:26:16.565Z,100547.01
2019-05-10T09:28:42.514Z,100548.17
2019-05-10T09:31:18.910Z,100552.91
2019-05-10T09:33:49.322Z,100560.92
2019-05-10T09:36:12.633Z,100567.37
2019-05-10T09:38:43.439Z,100580.13
2019-05-10T09:41:12.037Z,100587.92
2019-05-10T09:43:48.451Z,100586.44
2019-05-10T09:46:14.039Z,100598.26
2019-05-10T09:48:44.761Z,100605.76
2019-05-10T09:51:13.883Z,100613.95
2019-05-10T09:53:42.993Z,100615.02
2019-05-10T09:56:11.941Z,100617.67
2019-05-10T09:58:40.767Z,100624.45
2019-05-10T10:01:17.781Z,100627.96
2019-05-10T10:03:43.627Z,100632.89
2019-05-10T10:06:11.445Z,100635.35
2019-05-10T10:08:43.523Z,100638.36
2019-05-10T10:11:15.742Z,100634.09
2019-05-10T10:13:43.988Z,100633.63
2019-05-10T10:16:14.699Z,100635.83
2019-05-10T10:18:42.761Z,100641.27
2019-05-10T10:21:13.189Z,100642.23
2019-05-10T10:23:42.234Z,100639.53
2019-05-10T10:26:12.543Z,100644.68
2019-05-10T10:28:41.689Z,100648.66
2019-05-10T10:31:25.086Z,100654.19
2019-05-10T10:33:43.071Z,100653.68
2019-05-10T10:36:11.755Z,100655.27
2019-05-10T10:38:45.471Z,100653.73
2019-05-10T10:41:11.625Z,100656.68
2019-05-10T10:43:40.427Z,100662.45
2019-05-10T10:46:12.467Z,100659.14
2019-05-10T10:48:43.528Z,100659.25
2019-05-10T10:51:10.603Z,100666.48
2019-05-10T10:53:39.468Z,100664.06
2019-05-10T10:56:08.216Z,100666.11
2019-05-10T10:58:37.112Z,100677.36
2019-05-10T11:01:10.643Z,100677.05
2019-05-10T11:03:40.968Z,100679.16
2019-05-10T11:06:09.835Z,100681.86
2019-05-10T11:12:06.188Z,100696.34
2019-05-10T11:14:39.991Z,100696.39
2019-05-10T11:17:05.645Z,100706.78
2019-05-10T11:19:34.455Z,100711.43
2019-05-10T11:22:09.679Z,100717.89
2019-05-10T11:24:33.860Z,100713.91
2019-05-10T11:27:17.111Z,100720.88
2019-05-10T11:29:43.995Z,100718.33
2019-05-10T11:32:16.698Z,100722.97
2019-05-10T11:34:44.145Z,100723.44
2019-05-10T11:37:16.183Z,100730.34
2019-05-10T11:39:46.815Z,100733.10
2019-05-10T11:42:15.583Z,100731.98
2019-05-10T11:44:49.959Z,100734.95
2019-05-10T11:47:25.286Z,100734.83
2019-05-10T11:49:45.613Z,100740.04
2019-05-10T11:52:14.430Z,100734.66
2019-05-10T11:54:43.480Z,100741.36
2019-05-10T11:57:13.739Z,100742.02
2019-05-10T11:59:42.821Z,100751.31
2019-05-10T12:02:32.700Z,100756.75
2019-05-10T12:04:43.486Z,100760.09
2019-05-10T12:07:13.011Z,100759.95
2019-05-10T12:09:42.721Z,100761.97
2019-05-10T12:12:12.487Z,100767.89
2019-05-10T12:14:43.754Z,100778.33
2019-05-10T12:17:24.961Z,100782.33
2019-05-10T12:19:56.223Z,100783.62
2019-05-10T12:22:32.058Z,100779.46
2019-05-10T12:25:20.573Z,100782.33
2019-05-10T12:27:30.092Z,100785.67
2019-05-10T12:29:59.985Z,100786.84
2019-05-10T12:32:27.113Z,100794.20
2019-05-10T12:34:57.310Z,100788.72
2019-05-10T12:37:26.323Z,100794.79
2019-05-10T12:39:55.344Z,100797.02
2019-05-10T12:42:24.153Z,100797.16
2019-05-10T12:44:55.847Z,100796.77
2019-05-10T12:47:24.658Z,100799.22
2019-05-10T12:50:01.778Z,100799.25
2019-05-10T12:52:28.653Z,100800.58
2019-05-10T12:54:55.570Z,100801.81
2019-05-10T12:57:27.796Z,100802.41
2019-05-10T13:00:12.275Z,100801.88
2019-05-10T13:02:51.457Z,100809.44
2019-05-10T13:05:30.695Z,100810.98
2019-05-10T13:07:58.068Z,100813.02
2019-05-10T13:10:53.076Z,100820.89
2019-05-10T13:13:31.757Z,100829.50
2019-05-10T13:16:09.538Z,100834.77
2019-05-10T13:18:52.928Z,100846.53
2019-05-10T13:21:19.507Z,100860.05
2019-05-10T13:23:53.309Z,100863.63
2019-05-10T13:26:25.564Z,100860.83
2019-05-10T13:29:08.171Z,100869.25
2019-05-10T13:31:42.138Z,100875.98
2019-05-10T13:34:34.597Z,100872.62
2019-05-10T13:37:06.690Z,100878.14
2019-05-10T13:39:39.423Z,100875.27
2019-05-10T13:42:12.346Z,100880.13
2019-05-10T13:44:43.062Z,100881.56
2019-05-10T13:47:13.204Z,100888.09
2019-05-10T13:49:42.200Z,100886.68
2019-05-10T13:52:18.194Z,100889.38
2019-05-10T13:54:47.325Z,100894.81
2019-05-10T13:57:16.696Z,100898.75
2019-05-10T13:59:48.893Z,100893.68
2019-05-10T14:05:30.304Z,100894.95
2019-05-10T14:07:59.145Z,100901.65
2019-05-10T14:10:28.141Z,100905.03
2019-05-10T14:13:02.713Z,100905.99
2019-05-10T14:15:27.788Z,100902.56
2019-05-10T14:17:56.827Z,100907.84
2019-05-10T14:20:27.666Z,100904.31
2019-05-10T14:22:58.713Z,100909.45
2019-05-10T14:25:29.647Z,100910.56
2019-05-10T14:27:57.905Z,100909.70
2019-05-10T14:30:27.113Z,100891.55
2019-05-10T14:32:56.135Z,100904.67
2019-05-10T14:35:28.027Z,100920.91
2019-05-10T14:38:07.591Z,100920.52
2019-05-10T14:40:30.464Z,100920.75
2019-05-10T14:42:58.272Z,100923.16
2019-05-10T14:45:27.116Z,100923.55
2019-05-10T14:47:56.081Z,100921.84
2019-05-10T14:50:28.048Z,100916.62
2019-05-10T14:52:55.734Z,100934.59
2019-05-10T14:55:27.874Z,100936.52
2019-05-10T14:57:55.276Z,100939.86
2019-05-10T15:00:24.287Z,100936.63
2019-05-10T15:02:56.648Z,100946.09
2019-05-10T15:05:23.777Z,100951.81
2019-05-10T15:11:33.268Z,100947.91
2019-05-10T15:14:02.376Z,100942.81
2019-05-10T15:16:31.532Z,100951.34
2019-05-10T15:19:00.420Z,100957.42
2019-05-10T15:21:34.541Z,100957.42
2019-05-10T15:24:03.096Z,100965.62
2019-05-10T15:26:37.660Z,100960.30
2019-05-10T15:29:02.807Z,100960.30
2019-05-10T15:31:31.871Z,100970.08
2019-05-10T15:34:04.985Z,100974.14
2019-05-10T15:43:04.550Z,100977.49
2019-05-10T15:49:06.058Z,100974.06
2019-05-10T15:51:36.541Z,100958.53
2019-05-10T15:54:07.497Z,100978.63
2019-05-10T15:59:07.423Z,100992.00
2019-05-10T15:59:23.581Z,100982.18
2019-05-10T16:01:36.532Z,100987.69
2019-05-10T16:04:05.605Z,100998.42
2019-05-10T16:06:37.739Z,100997.59
2019-05-10T16:09:16.936Z,100981.33
2019-05-10T16:25:48.623Z,101023.46
2019-05-10T16:28:20.702Z,101026.98
2019-05-10T16:30:54.112Z,101026.20
2019-05-10T16:33:25.861Z,101032.94
2019-05-10T16:35:55.531Z,101033.13
2019-05-10T16:38:25.498Z,101031.55
2019-05-10T16:41:00.605Z,101039.13
2019-05-10T16:44:01.200Z,101036.14
2019-05-10T16:46:38.159Z,101045.08
2019-05-10T16:49:10.161Z,101030.84
2019-05-10T16:51:42.370Z,101040.48
2019-05-10T16:54:33.759Z,101039.64
2019-05-10T17:04:00.387Z,101055.57
2019-05-10T17:06:28.857Z,101055.57
2019-05-10T17:08:58.029Z,101049.27
2019-05-10T17:11:26.822Z,101050.84
2019-05-10T17:13:55.900Z,101052.72
2019-05-10T17:16:24.976Z,101059.75
2019-05-10T17:18:55.319Z,101029.64
2019-05-10T17:21:24.859Z,101060.76
2019-05-10T17:23:53.900Z,101064.19
2019-05-10T17:26:34.811Z,101067.30
2019-05-10T17:29:07.334Z,101067.30
2019-05-10T17:31:39.518Z,101078.53
2019-05-10T17:34:05.314Z,101075.33
2019-05-10T17:36:34.441Z,101080.53
2019-05-10T17:39:04.341Z,101080.83
2019-05-10T17:41:41.043Z,101085.13
2019-05-10T17:44:11.177Z,101080.80
2019-05-10T17:46:40.267Z,101077.59
2019-05-10T17:49:09.341Z,101081.09
2019-05-10T17:51:38.604Z,101090.61
2019-05-10T17:54:07.695Z,101083.53
2019-05-10T17:56:38.992Z,101089.47
2019-05-10T17:59:12.130Z,101095.55
2019-05-10T18:01:40.362Z,101090.20
2019-05-10T18:04:09.697Z,101088.36
2019-05-10T18:06:38.747Z,101096.42
2019-05-10T18:09:07.848Z,101094.84
2019-05-10T18:11:42.857Z,101091.88
2019-05-10T18:14:12.591Z,101092.29
2019-05-10T18:16:41.930Z,101094.64
2019-05-10T18:19:10.207Z,101096.93
2019-05-10T18:21:39.086Z,101102.60
2019-05-10T18:24:07.895Z,101102.77
2019-05-10T18:26:39.674Z,101111.72
2019-05-10T18:29:07.406Z,101103.72
2019-05-10T18:31:36.248Z,101107.21
2019-05-10T18:34:05.135Z,101111.17
2019-05-10T18:36:51.276Z,101114.55
2019-05-10T18:39:09.160Z,101111.91
2019-05-10T18:41:41.463Z,101120.28
2019-05-10T18:44:08.787Z,101119.97
2019-05-10T18:46:39.380Z,101123.68
2019-05-10T18:49:08.420Z,101121.06
2019-05-10T18:51:37.281Z,101126.30
2019-05-10T18:54:06.174Z,101121.30
2019-05-10T18:56:35.150Z,101127.20
2019-05-10T18:59:07.503Z,101118.16
2019-05-10T19:01:38.652Z,101132.37
2019-05-10T19:04:14.217Z,101138.35
2019-05-10T19:06:44.012Z,101144.01
2019-05-10T19:09:09.700Z,101141.34
2019-05-10T19:11:40.533Z,101150.18
2019-05-10T19:14:09.239Z,101148.36
2019-05-10T19:16:38.003Z,101152.50
2019-05-10T19:19:07.979Z,101147.89
2019-05-10T19:21:37.973Z,101152.05
2019-05-10T19:24:07.330Z,101150.03
2019-05-10T19:26:36.360Z,101160.13
2019-05-10T19:29:06.819Z,101159.95
2019-05-10T19:31:37.890Z,101170.50
2019-05-10T19:34:09.085Z,101169.72
2019-05-10T19:36:37.507Z,101177.14
2019-05-10T19:39:07.794Z,101172.87
2019-05-10T19:41:37.228Z,101178.16
2019-05-10T19:44:06.134Z,101180.77
2019-05-10T19:46:39.031Z,101182.92
2019-05-10T19:49:07.512Z,101183.80
2019-05-10T19:51:36.405Z,101179.78
2019-05-10T19:54:05.462Z,101187.11
2019-05-10T19:56:36.543Z,101184.86
2019-05-10T19:59:10.916Z,101180.75
2019-05-10T20:01:35.539Z,101190.09
2019-05-10T20:04:04.534Z,101183.80
2019-05-10T20:06:33.326Z,101191.50
2019-05-10T20:09:02.147Z,101185.58
2019-05-10T20:11:31.138Z,101195.59
2019-05-10T20:14:00.228Z,101200.20
2019-05-10T20:16:29.129Z,101201.43
2019-05-10T20:18:57.948Z,101201.09
2019-05-10T20:21:40.751Z,101203.82
2019-05-10T20:24:11.031Z,101205.08
2019-05-10T20:26:40.393Z,101208.16
2019-05-10T20:29:11.655Z,101210.30
2019-05-10T20:35:08.298Z,101222.37
2019-05-10T20:37:37.335Z,101216.01
2019-05-10T20:40:06.542Z,101217.72
2019-05-10T20:42:35.367Z,101221.02
2019-05-10T20:45:08.152Z,101224.22
2019-05-10T20:47:35.184Z,101226.17
2019-05-10T20:50:04.790Z,101228.48
2019-05-10T20:52:33.819Z,101227.73
2019-05-10T20:55:39.781Z,101228.64
2019-05-10T20:58:08.640Z,101232.64
2019-05-10T21:00:37.405Z,101235.98
2019-05-10T21:03:06.262Z,101238.57
2019-05-10T21:05:35.244Z,101239.09
2019-05-10T21:08:16.153Z,101241.95
2019-05-10T21:10:34.665Z,101235.95
2019-05-10T21:13:03.561Z,101241.43
2019-05-10T21:15:33.628Z,101244.67
2019-05-10T21:18:02.486Z,101240.08
2019-05-10T21:20:31.372Z,101245.98
2019-05-10T21:23:00.220Z,101250.74
2019-05-10T21:25:29.117Z,101255.69
2019-05-10T21:27:58.044Z,101254.44
2019-05-10T21:30:27.031Z,101258.45
2019-05-10T21:32:56.962Z,101256.44
2019-05-10T21:35:25.793Z,101257.40
2019-05-10T21:37:54.634Z,101256.33
2019-05-10T21:40:23.556Z,101253.29
2019-05-10T21:42:58.169Z,101262.47
2019-05-10T21:45:33.978Z,101259.21
2019-05-10T21:47:59.284Z,101265.95
2019-05-10T21:50:28.189Z,101265.67
2019-05-10T21:52:57.039Z,101262.53
2019-05-10T21:55:25.991Z,101271.41
2019-05-10T21:57:56.356Z,101272.05
2019-05-10T22:00:28.600Z,101271.94
2019-05-10T22:02:57.580Z,101271.88
2019-05-10T22:05:26.638Z,101278.34
2019-05-10T22:07:55.641Z,101277.19
2019-05-10T22:10:24.562Z,101280.09
2019-05-10T22:12:54.811Z,101281.89
2019-05-10T22:15:25.279Z,101288.55
2019-05-10T22:17:54.406Z,101288.45
2019-05-10T22:20:23.402Z,101289.48
2019-05-10T22:22:52.215Z,101290.66
2019-05-10T22:25:22.231Z,101291.42
2019-05-10T22:27:51.626Z,101296.60
2019-05-10T22:30:20.768Z,101301.06
2019-05-10T22:32:49.782Z,101302.13
2019-05-10T22:35:18.911Z,101303.64
2019-05-10T22:37:48.163Z,101299.80
2019-05-10T22:40:17.171Z,101294.34
2019-05-10T22:42:46.166Z,101294.93
2019-05-10T22:45:15.333Z,101296.88
2019-05-10T22:47:44.130Z,101286.39
2019-05-10T22:50:13.242Z,101280.16
2019-05-10T22:52:42.309Z,101276.86
2019-05-10T22:55:11.679Z,101273.38
2019-05-10T22:57:40.644Z,101270.02
2019-05-10T23:00:10.494Z,101269.41
2019-05-10T23:02:39.541Z,101272.93
2019-05-10T23:05:08.598Z,101277.24
2019-05-10T23:07:37.461Z,101279.25
2019-05-10T23:10:07.027Z,101282.29
2019-05-10T23:12:35.969Z,101284.48
2019-05-10T23:15:05.465Z,101282.64
2019-05-10T23:17:40.089Z,101284.27
2019-05-10T23:20:09.105Z,101284.84
2019-05-10T23:22:38.014Z,101288.81
2019-05-10T23:25:07.242Z,101292.63
2019-05-10T23:27:36.146Z,101290.60
2019-05-10T23:30:06.237Z,101292.81
2019-05-10T23:32:35.204Z,101298.80
2019-05-10T23:35:04.315Z,101288.89
2019-05-10T23:37:33.232Z,101288.56
2019-05-10T23:40:04.426Z,101299.75
2019-05-10T23:42:33.430Z,101301.28
2019-05-10T23:45:02.324Z,101300.84
2019-05-10T23:47:31.292Z,101298.09
2019-05-10T23:50:00.171Z,101299.53
2019-05-10T23:52:29.166Z,101299.01
2019-05-10T23:54:57.964Z,101303.61
2019-05-10T23:57:26.838Z,101298.85
2019-05-10T23:59:55.924Z,101301.94
